Time;durP1;ratioP1;P1;durP2;ratioP2;P2;SDS_P1;SDS_P2;PMS_P1;PMS_P2;Temp;Humidity;BMP_temperature;BMP_pressure;BME280_temperature;BME280_humidity;BME280_pressure;Samples;Min_cycle;Max_cycle;Signal;HPM_P1;HPM_P2
2022/07/05 00:01:10;;;;;;;1.40;1.30;;;23.40;78.10;;;;;;4952450;29;20222;-72
2022/07/05 00:03:36;;;;;;;1.52;1.42;;;23.40;78.10;;;;;;4953181;28;20572;-72
2022/07/05 00:06:01;;;;;;;1.48;1.40;;;23.40;78.10;;;;;;4954350;28;20191;-72
2022/07/05 00:08:27;;;;;;;1.50;1.40;;;23.40;78.10;;;;;;4953018;28;20305;-72
2022/07/05 00:10:53;;;;;;;1.30;1.20;;;23.40;78.10;;;;;;4953180;29;20202;-72
2022/07/05 00:13:20;;;;;;;1.58;1.48;;;23.40;78.10;;;;;;4969244;28;20187;-72
2022/07/05 00:15:45;;;;;;;1.30;1.30;;;23.40;78.00;;;;;;4953076;29;20273;-72
2022/07/05 00:18:11;;;;;;;1.40;1.30;;;23.40;78.00;;;;;;4969165;28;20281;-71
2022/07/05 00:20:37;;;;;;;1.50;1.40;;;23.40;78.10;;;;;;4952974;28;20691;-72
2022/07/05 00:23:03;;;;;;;1.15;1.10;;;23.40;78.00;;;;;;4952695;28;20273;-72
2022/07/05 00:25:28;;;;;;;2.13;1.30;;;23.40;78.00;;;;;;4952903;28;20190;-73
2022/07/05 00:27:54;;;;;;;3.63;1.50;;;23.40;77.90;;;;;;4953214;29;20687;-72
2022/07/05 00:30:20;;;;;;;2.05;1.20;;;23.40;77.90;;;;;;4953076;28;20601;-72
2022/07/05 00:32:46;;;;;;;1.48;1.38;;;23.40;77.90;;;;;;4952744;28;20235;-72
2022/07/05 00:35:12;;;;;;;1.38;1.15;;;23.40;77.90;;;;;;4952965;28;20198;-72
2022/07/05 00:37:38;;;;;;;1.30;1.30;;;23.40;77.90;;;;;;4952856;29;20186;-72
2022/07/05 00:40:07;;;;;;;1.70;1.50;;;23.40;77.90;;;;;;4952991;28;20210;-72
2022/07/05 00:42:33;;;;;;;1.33;1.23;;;23.40;77.90;;;;;;4952261;28;20199;-72
2022/07/05 00:44:59;;;;;;;1.25;1.25;;;23.40;77.90;;;;;;4954960;28;20261;-73
2022/07/05 00:47:26;;;;;;;1.38;1.27;;;23.40;77.80;;;;;;4956847;28;20697;-72
2022/07/05 00:49:51;;;;;;;1.42;1.33;;;23.40;77.80;;;;;;4956345;28;20210;-72
2022/07/05 00:52:17;;;;;;;1.40;1.30;;;23.40;77.80;;;;;;4972313;28;20630;-72
2022/07/05 00:54:43;;;;;;;1.55;1.50;;;23.40;77.70;;;;;;4956453;28;20189;-72
2022/07/05 00:57:09;;;;;;;1.20;1.10;;;23.40;77.70;;;;;;4956627;28;20186;-72
2022/07/05 00:59:35;;;;;;;1.17;1.17;;;23.40;77.70;;;;;;4957821;29;20222;-72
2022/07/05 01:02:01;;;;;;;1.20;1.20;;;23.40;77.80;;;;;;4955976;28;20194;-72
2022/07/05 01:04:27;;;;;;;1.38;1.27;;;23.40;77.80;;;;;;4956051;28;20190;-72
2022/07/05 01:06:53;;;;;;;1.25;1.20;;;23.30;77.60;;;;;;4962268;28;20231;-72
2022/07/05 01:09:21;;;;;;;1.40;1.30;;;23.40;77.80;;;;;;4959704;28;20221;-72
2022/07/05 01:11:49;;;;;;;1.17;1.10;;;23.40;77.80;;;;;;4976106;28;20185;-72
2022/07/05 01:14:23;;;;;;;1.10;1.10;;;23.40;77.70;;;;;;4975661;28;20268;-72
2022/07/05 01:16:51;;;;;;;1.10;1.10;;;23.30;77.60;;;;;;4959365;28;20198;-72
2022/07/05 01:19:18;;;;;;;2.00;1.30;;;23.40;77.70;;;;;;4975315;28;20673;-71
2022/07/05 01:21:48;;;;;;;1.20;1.20;;;23.40;77.60;;;;;;4990957;28;20196;-72
2022/07/05 01:24:17;;;;;;;1.83;1.60;;;23.40;77.60;;;;;;4976597;28;20186;-72
2022/07/05 01:26:48;;;;;;;1.73;1.20;;;23.40;77.60;;;;;;4975446;28;20216;-72
2022/07/05 01:29:15;;;;;;;1.27;1.27;;;23.40;77.60;;;;;;4975089;28;20228;-72
2022/07/05 01:31:41;;;;;;;1.27;1.20;;;23.40;77.60;;;;;;4958672;28;20188;-72
2022/07/05 01:34:08;;;;;;;1.10;1.10;;;23.30;77.40;;;;;;4975387;28;20313;-72
2022/07/05 01:36:35;;;;;;;1.48;1.38;;;23.40;77.60;;;;;;4975125;28;20185;-73
2022/07/05 01:39:06;;;;;;;1.00;1.00;;;23.40;77.50;;;;;;4965039;28;20183;-72
2022/07/05 01:41:32;;;;;;;1.38;1.17;;;23.30;77.30;;;;;;4955222;28;20194;-72
2022/07/05 01:43:59;;;;;;;1.30;1.20;;;23.30;77.30;;;;;;4955907;28;20186;-72
2022/07/05 01:46:29;;;;;;;1.30;1.20;;;23.30;77.30;;;;;;4955823;28;20285;-72
2022/07/05 01:48:59;;;;;;;1.40;1.30;;;23.30;77.30;;;;;;4955139;28;20229;-72
2022/07/05 01:51:32;;;;;;;1.30;1.20;;;23.30;77.30;;;;;;4954886;28;20642;-72
2022/07/05 01:53:59;;;;;;;1.00;1.00;;;23.30;77.20;;;;;;4939499;28;20276;-72
2022/07/05 01:56:25;;;;;;;1.30;1.20;;;23.30;77.20;;;;;;4954474;28;20234;-72
2022/07/05 01:58:53;;;;;;;1.00;1.00;;;23.30;77.30;;;;;;4955642;28;20669;-72
2022/07/05 02:01:37;;;;;;;1.20;1.20;;;23.30;77.20;;;;;;4970731;28;20190;-72
2022/07/05 02:04:05;;;;;;;1.48;1.27;;;23.30;77.10;;;;;;4955452;28;20194;-72
2022/07/05 02:06:33;;;;;;;1.08;1.08;;;23.30;77.10;;;;;;4955219;29;20555;-72
2022/07/05 02:09:02;;;;;;;1.20;1.20;;;23.30;77.10;;;;;;4955099;28;20229;-72
2022/07/05 02:11:28;;;;;;;1.33;1.23;;;23.30;77.10;;;;;;4954804;28;20179;-72
2022/07/05 02:13:54;;;;;;;1.30;1.20;;;23.30;77.10;;;;;;4953815;28;20205;-72
2022/07/05 02:16:25;;;;;;;1.35;1.10;;;23.30;77.10;;;;;;4937337;29;20674;-72
2022/07/05 02:18:51;;;;;;;1.08;1.08;;;23.30;77.10;;;;;;4955166;28;20600;-71
2022/07/05 02:21:17;;;;;;;1.10;1.10;;;23.30;77.00;;;;;;4938464;28;20281;-72
2022/07/05 02:23:45;;;;;;;1.10;1.02;;;23.30;77.00;;;;;;4939117;28;20214;-72
2022/07/05 02:26:11;;;;;;;1.10;1.10;;;23.30;77.00;;;;;;4938972;29;20230;-72
2022/07/05 02:28:39;;;;;;;1.15;1.15;;;23.30;77.00;;;;;;4954791;28;20213;-72
2022/07/05 02:31:06;;;;;;;1.02;1.02;;;23.30;76.90;;;;;;4938931;29;20216;-72
2022/07/05 02:33:32;;;;;;;1.30;1.20;;;23.30;77.00;;;;;;4954639;28;20178;-72
2022/07/05 02:36:10;;;;;;;1.30;1.08;;;23.30;77.00;;;;;;4938614;28;20179;-72
2022/07/05 02:38:36;;;;;;;1.10;1.10;;;23.20;76.80;;;;;;4954852;29;20171;-72
2022/07/05 02:41:10;;;;;;;1.00;1.00;;;23.30;76.80;;;;;;4954508;28;20210;-72
2022/07/05 02:43:39;;;;;;;1.15;1.15;;;23.30;76.80;;;;;;4954825;28;20189;-72
2022/07/05 02:46:08;;;;;;;1.10;1.10;;;23.30;76.80;;;;;;4954478;28;20194;-72
2022/07/05 02:48:36;;;;;;;1.38;1.27;;;23.30;76.60;;;;;;4954028;29;20214;-72
2022/07/05 02:51:03;;;;;;;1.00;1.00;;;23.30;76.60;;;;;;4954450;28;20198;-72
2022/07/05 02:53:29;;;;;;;0.85;0.85;;;23.30;76.60;;;;;;4938173;29;20237;-72
2022/07/05 02:55:56;;;;;;;1.13;1.13;;;23.20;76.40;;;;;;4938465;28;20210;-72
2022/07/05 02:58:22;;;;;;;1.40;0.90;;;23.20;76.40;;;;;;4970415;28;20625;-72
2022/07/05 03:00:49;;;;;;;1.10;1.00;;;23.20;76.40;;;;;;4954177;28;20218;-72
2022/07/05 03:03:18;;;;;;;1.20;1.10;;;23.20;76.40;;;;;;4969783;28;20220;-73
2022/07/05 03:05:44;;;;;;;1.00;1.00;;;23.20;76.50;;;;;;4938423;28;20191;-71
2022/07/05 03:08:10;;;;;;;0.90;0.90;;;23.20;76.40;;;;;;4954741;28;20213;-72
2022/07/05 03:10:38;;;;;;;1.08;0.80;;;23.20;76.40;;;;;;4938299;28;20713;-72
2022/07/05 03:13:05;;;;;;;1.10;1.00;;;23.20;76.40;;;;;;4953709;28;20186;-72
2022/07/05 03:15:31;;;;;;;0.80;0.80;;;23.20;76.40;;;;;;4954143;28;20201;-72
2022/07/05 03:17:58;;;;;;;1.10;1.10;;;23.20;76.40;;;;;;4938039;28;20273;-72
2022/07/05 03:20:25;;;;;;;0.90;0.90;;;23.20;76.40;;;;;;4938066;29;20261;-72
2022/07/05 03:22:52;;;;;;;1.10;1.00;;;23.20;76.40;;;;;;4969220;28;20203;-73
2022/07/05 03:25:22;;;;;;;0.90;0.90;;;23.20;76.40;;;;;;4953653;28;20191;-72
2022/07/05 03:27:48;;;;;;;1.00;1.00;;;23.20;76.40;;;;;;4938127;28;20218;-72
2022/07/05 03:30:15;;;;;;;1.13;0.90;;;23.20;76.40;;;;;;4938080;29;20720;-72
2022/07/05 03:32:41;;;;;;;1.10;1.10;;;23.20;76.40;;;;;;4953358;28;20190;-72
2022/07/05 03:35:08;;;;;;;1.58;1.00;;;23.20;76.40;;;;;;4937655;29;20194;-72
2022/07/05 03:37:34;;;;;;;0.68;0.68;;;23.20;76.40;;;;;;4953535;28;20658;-72
2022/07/05 03:40:00;;;;;;;1.00;1.00;;;23.20;76.40;;;;;;4937619;28;20218;-72
2022/07/05 03:42:26;;;;;;;0.95;0.95;;;23.20;76.40;;;;;;4952926;28;20201;-72
2022/07/05 03:44:52;;;;;;;1.23;1.10;;;23.20;76.40;;;;;;4969398;28;20186;-72
2022/07/05 03:47:20;;;;;;;1.02;1.02;;;23.20;76.40;;;;;;4953733;28;20186;-72
2022/07/05 03:49:46;;;;;;;1.10;0.98;;;23.10;76.20;;;;;;4953067;29;20206;-72
2022/07/05 03:52:12;;;;;;;0.98;0.98;;;23.20;76.40;;;;;;4953115;29;20214;-71
2022/07/05 03:54:38;;;;;;;0.90;0.90;;;23.20;76.40;;;;;;4953389;29;20651;-72
2022/07/05 03:57:05;;;;;;;0.90;0.90;;;23.20;76.40;;;;;;4953595;29;20218;-72
2022/07/05 03:59:32;;;;;;;1.10;1.10;;;23.20;76.20;;;;;;4953246;28;20210;-72
2022/07/05 04:01:58;;;;;;;0.85;0.85;;;23.10;76.20;;;;;;4937056;28;20187;-72
2022/07/05 04:04:24;;;;;;;0.73;0.73;;;23.20;76.30;;;;;;4954397;28;20186;-72
2022/07/05 04:06:50;;;;;;;1.17;1.10;;;23.20;76.30;;;;;;4953240;29;20205;-72
2022/07/05 04:09:17;;;;;;;1.00;1.00;;;23.20;76.30;;;;;;4953288;29;20218;-72
2022/07/05 04:11:43;;;;;;;0.88;0.88;;;23.20;76.10;;;;;;4952500;28;20190;-72
2022/07/05 04:14:09;;;;;;;0.98;0.98;;;23.10;75.90;;;;;;4953342;28;20343;-72
2022/07/05 04:16:37;;;;;;;1.00;1.00;;;23.20;76.80;;;;;;4953032;28;20186;-72
2022/07/05 04:19:03;;;;;;;1.00;1.00;;;23.20;76.00;;;;;;4952620;28;20194;-72
2022/07/05 04:21:31;;;;;;;0.90;0.90;;;23.20;76.00;;;;;;4952473;28;20197;-72
2022/07/05 04:23:57;;;;;;;0.90;0.90;;;23.20;75.90;;;;;;4952997;29;20182;-71
2022/07/05 04:26:23;;;;;;;0.80;0.80;;;23.10;75.90;;;;;;4952968;28;20248;-72
2022/07/05 04:28:49;;;;;;;0.80;0.80;;;23.20;76.00;;;;;;4945637;28;20303;-72
2022/07/05 04:31:21;;;;;;;0.70;0.70;;;23.20;76.00;;;;;;4918131;29;20187;-71
2022/07/05 04:33:50;;;;;;;0.88;0.88;;;23.10;75.80;;;;;;4949479;28;20183;-71
2022/07/05 04:36:20;;;;;;;1.15;1.00;;;23.20;75.90;;;;;;4933467;29;20183;-72
2022/07/05 04:38:47;;;;;;;0.77;0.77;;;23.10;75.80;;;;;;4933786;28;20187;-72
2022/07/05 04:41:14;;;;;;;0.75;0.75;;;23.20;75.90;;;;;;4933758;28;20221;-71
2022/07/05 04:43:40;;;;;;;0.93;0.93;;;23.10;75.80;;;;;;4933340;29;20187;-72
2022/07/05 04:46:09;;;;;;;0.90;0.90;;;23.20;75.80;;;;;;4933789;28;20207;-71
2022/07/05 04:48:34;;;;;;;0.90;0.90;;;23.20;75.60;;;;;;4933840;28;20211;-72
2022/07/05 04:51:00;;;;;;;0.70;0.70;;;23.10;75.50;;;;;;4917284;29;20254;-72
2022/07/05 04:53:29;;;;;;;0.98;0.88;;;23.10;75.50;;;;;;4933006;28;20194;-72
2022/07/05 04:55:55;;;;;;;1.45;0.60;;;23.20;75.40;;;;;;4947285;28;20190;-72
2022/07/05 04:58:20;;;;;;;1.00;1.00;;;23.10;75.30;;;;;;4952622;28;20670;-72
2022/07/05 05:00:46;;;;;;;0.98;0.98;;;23.20;75.30;;;;;;4952382;29;20277;-72
2022/07/05 05:03:12;;;;;;;0.73;0.73;;;23.20;75.20;;;;;;4946628;29;20211;-73
2022/07/05 05:05:38;;;;;;;0.80;0.80;;;23.20;75.10;;;;;;4929872;29;20197;-72
2022/07/05 05:08:04;;;;;;;1.08;1.00;;;23.10;74.80;;;;;;4952323;29;20306;-72
2022/07/05 05:10:29;;;;;;;1.10;1.00;;;23.20;75.00;;;;;;4952416;28;20213;-73
2022/07/05 05:12:55;;;;;;;0.88;0.88;;;23.10;74.90;;;;;;4951134;29;20186;-72
2022/07/05 05:15:21;;;;;;;0.85;0.85;;;23.10;74.80;;;;;;4952114;29;20234;-73
2022/07/05 05:17:47;;;;;;;0.60;0.60;;;23.10;74.80;;;;;;4935972;28;20220;-73
2022/07/05 05:20:16;;;;;;;1.42;0.77;;;23.10;74.80;;;;;;4951824;28;20214;-73
2022/07/05 05:22:43;;;;;;;0.93;0.93;;;23.10;74.80;;;;;;4951523;28;20645;-72
2022/07/05 05:25:10;;;;;;;1.05;0.95;;;23.10;74.80;;;;;;4951400;29;20277;-74
2022/07/05 05:27:48;;;;;;;2.25;0.90;;;23.10;74.80;;;;;;4936011;29;20721;-73
2022/07/05 05:30:16;;;;;;;0.90;0.90;;;23.20;75.00;;;;;;4951749;28;20210;-73
2022/07/05 05:32:42;;;;;;;0.70;0.70;;;23.10;74.90;;;;;;4954190;29;20183;-73
2022/07/05 05:35:08;;;;;;;0.80;0.80;;;23.10;74.90;;;;;;4955380;29;20217;-74
2022/07/05 05:37:48;;;;;;;0.95;0.95;;;23.10;74.90;;;;;;4955261;29;20202;-73
2022/07/05 05:40:15;;;;;;;0.88;0.70;;;23.20;75.00;;;;;;4971333;28;20268;-73
2022/07/05 05:42:42;;;;;;;0.85;0.85;;;23.10;75.00;;;;;;4954855;28;20232;-73
2022/07/05 05:45:09;;;;;;;1.75;1.00;;;23.10;74.90;;;;;;4956463;28;20178;-73
2022/07/05 05:47:46;;;;;;;0.70;0.70;;;23.10;74.90;;;;;;4954740;28;20214;-73
2022/07/05 05:50:12;;;;;;;0.95;0.93;;;23.10;75.00;;;;;;4956139;29;20209;-72
2022/07/05 05:52:38;;;;;;;0.70;0.70;;;23.20;75.10;;;;;;4970552;28;20187;-73
2022/07/05 05:55:05;;;;;;;0.80;0.80;;;23.10;75.00;;;;;;4956202;28;20187;-73
2022/07/05 05:57:33;;;;;;;1.00;1.00;;;23.10;75.00;;;;;;4954929;28;20194;-73
2022/07/05 05:59:59;;;;;;;0.90;0.90;;;23.10;75.00;;;;;;4970293;28;20221;-73
2022/07/05 06:02:24;;;;;;;1.50;0.90;;;23.10;75.10;;;;;;4974461;28;20189;-74
2022/07/05 06:04:50;;;;;;;0.93;0.93;;;23.10;75.10;;;;;;4973931;28;20197;-73
2022/07/05 06:07:16;;;;;;;0.90;0.90;;;23.10;75.10;;;;;;4966116;28;20198;-73
2022/07/05 06:09:41;;;;;;;0.90;0.90;;;23.20;75.20;;;;;;4939115;29;20238;-73
2022/07/05 06:12:08;;;;;;;0.90;0.90;;;23.10;75.20;;;;;;4950937;28;20188;-73
2022/07/05 06:14:33;;;;;;;0.82;0.82;;;23.10;75.30;;;;;;4951315;28;20663;-73
2022/07/05 06:16:59;;;;;;;0.88;0.88;;;23.20;75.40;;;;;;4951377;28;20199;-73
2022/07/05 06:19:25;;;;;;;0.90;0.90;;;23.20;75.50;;;;;;4936459;29;20214;-73
2022/07/05 06:21:50;;;;;;;0.90;0.90;;;23.20;75.50;;;;;;4934786;29;20191;-73
2022/07/05 06:24:16;;;;;;;1.35;1.25;;;23.10;75.50;;;;;;4951209;29;20193;-73
2022/07/05 06:26:42;;;;;;;0.98;0.98;;;23.20;75.70;;;;;;4934579;28;20196;-73
2022/07/05 06:29:07;;;;;;;1.02;1.02;;;23.20;75.70;;;;;;4950927;28;20214;-73
2022/07/05 06:31:33;;;;;;;0.90;0.90;;;23.10;75.60;;;;;;4934529;29;20195;-72
2022/07/05 06:33:59;;;;;;;1.20;0.90;;;23.10;75.60;;;;;;4935145;28;20187;-72
2022/07/05 06:36:25;;;;;;;0.90;0.90;;;23.20;75.70;;;;;;4935071;29;20183;-73
2022/07/05 06:38:50;;;;;;;1.05;1.05;;;23.10;75.60;;;;;;4934936;29;20191;-73
2022/07/05 06:41:16;;;;;;;0.77;0.77;;;23.10;75.40;;;;;;4934793;29;20593;-73
2022/07/05 06:43:42;;;;;;;0.85;0.85;;;23.10;75.50;;;;;;4934094;29;20195;-73
2022/07/05 06:46:12;;;;;;;1.27;1.17;;;23.20;75.70;;;;;;4919640;29;20187;-73
2022/07/05 06:48:39;;;;;;;1.05;1.05;;;23.20;75.70;;;;;;4934988;29;20230;-74
2022/07/05 06:51:05;;;;;;;2.03;1.00;;;23.20;75.80;;;;;;4934714;29;20199;-74
2022/07/05 06:53:30;;;;;;;0.93;0.93;;;23.10;75.60;;;;;;4934038;29;20188;-74
2022/07/05 06:55:56;;;;;;;0.90;0.90;;;23.10;75.70;;;;;;4951625;28;20205;-74
2022/07/05 06:58:22;;;;;;;0.88;0.88;;;23.20;75.70;;;;;;4953479;28;20201;-73
2022/07/05 07:00:48;;;;;;;2.25;1.10;;;23.20;75.60;;;;;;4937686;28;20218;-74
2022/07/05 07:03:14;;;;;;;1.10;1.02;;;23.20;75.50;;;;;;4937211;28;20202;-74
2022/07/05 07:05:40;;;;;;;1.63;1.05;;;23.20;76.50;;;;;;4953559;28;20226;-74
2022/07/05 07:10:50;;;;;;;0.85;0.85;;;23.20;75.70;;;;;;4969178;28;20221;-74
2022/07/05 07:13:16;;;;;;;1.27;0.98;;;23.20;75.40;;;;;;4937057;28;20186;-74
2022/07/05 07:15:42;;;;;;;0.93;0.93;;;23.20;75.40;;;;;;4937569;29;20194;-74
2022/07/05 07:18:07;;;;;;;0.93;0.93;;;23.20;75.50;;;;;;4969521;28;20281;-74
2022/07/05 07:20:33;;;;;;;1.17;1.08;;;23.20;75.30;;;;;;4937248;29;20256;-74
2022/07/05 07:22:59;;;;;;;1.63;1.40;;;23.20;75.10;;;;;;4936654;29;20289;-74
2022/07/05 07:25:25;;;;;;;1.17;1.15;;;23.20;75.00;;;;;;4952631;29;20182;-74
2022/07/05 07:27:55;;;;;;;1.25;1.10;;;23.20;75.00;;;;;;4969271;28;20316;-75
2022/07/05 07:30:26;;;;;;;1.13;0.90;;;23.20;75.20;;;;;;4953118;28;20198;-74
2022/07/05 07:32:52;;;;;;;1.20;1.10;;;23.20;75.00;;;;;;4944736;28;20183;-74
2022/07/05 07:35:18;;;;;;;0.90;0.90;;;23.20;75.00;;;;;;4938893;28;20186;-74
2022/07/05 07:37:44;;;;;;;1.17;1.05;;;23.20;75.00;;;;;;4967068;28;20586;-75
2022/07/05 07:40:10;;;;;;;1.20;1.10;;;23.20;75.10;;;;;;4950957;28;20218;-74
2022/07/05 07:42:37;;;;;;;1.33;1.23;;;23.20;74.90;;;;;;4952484;28;20237;-74
2022/07/05 07:45:04;;;;;;;0.98;0.98;;;23.20;74.70;;;;;;4952283;28;20191;-74
2022/07/05 07:47:31;;;;;;;1.23;1.13;;;23.20;74.60;;;;;;4953186;28;20195;-74
2022/07/05 07:49:57;;;;;;;1.25;1.15;;;23.20;74.90;;;;;;4936518;28;20218;-74
2022/07/05 07:52:23;;;;;;;1.27;1.00;;;23.30;74.80;;;;;;4964760;28;20570;-74
2022/07/05 07:54:48;;;;;;;1.15;0.90;;;23.30;74.80;;;;;;4945532;28;20193;-76
2022/07/05 07:57:14;;;;;;;1.08;0.90;;;23.30;74.80;;;;;;4942051;28;20198;-74
2022/07/05 07:59:40;;;;;;;1.45;1.20;;;23.30;74.60;;;;;;4967005;28;20210;-74
2022/07/05 08:02:06;;;;;;;1.15;1.08;;;23.30;74.60;;;;;;4939497;28;20186;-74
2022/07/05 08:04:32;;;;;;;1.20;1.20;;;23.30;74.50;;;;;;4950399;28;20261;-74
2022/07/05 08:06:58;;;;;;;1.35;1.08;;;23.30;74.50;;;;;;4949731;29;20207;-74
2022/07/05 08:09:24;;;;;;;1.30;1.20;;;23.30;74.60;;;;;;4920444;28;20223;-74
2022/07/05 08:11:50;;;;;;;1.33;1.20;;;23.30;74.50;;;;;;4932514;28;20211;-74
2022/07/05 08:14:18;;;;;;;1.05;1.05;;;23.30;75.30;;;;;;4932921;28;20195;-74
2022/07/05 08:16:46;;;;;;;1.13;1.02;;;23.30;74.80;;;;;;4933018;29;20194;-73
2022/07/05 08:21:56;;;;;;;1.25;1.10;;;23.40;74.90;;;;;;4937460;29;20274;-75
2022/07/05 08:24:22;;;;;;;1.20;1.10;;;23.30;74.80;;;;;;4953741;28;20190;-74
2022/07/05 08:26:48;;;;;;;2.05;1.17;;;23.40;74.90;;;;;;4953048;28;20208;-73
2022/07/05 08:29:14;;;;;;;1.50;1.08;;;23.40;74.90;;;;;;4936871;29;20233;-74
2022/07/05 08:31:47;;;;;;;1.10;1.10;;;23.30;74.90;;;;;;4922119;28;20183;-74
2022/07/05 08:34:13;;;;;;;1.27;1.17;;;23.30;75.00;;;;;;4947801;29;20195;-74
2022/07/05 08:36:41;;;;;;;1.55;1.20;;;23.30;75.00;;;;;;4934408;29;20630;-74
2022/07/05 08:39:08;;;;;;;1.20;1.13;;;23.30;75.00;;;;;;4934295;28;20195;-74
2022/07/05 08:41:40;;;;;;;1.00;0.90;;;23.30;74.90;;;;;;4932965;28;20258;-74
2022/07/05 08:44:07;;;;;;;2.45;1.10;;;23.40;75.00;;;;;;4942398;28;20187;-74
2022/07/05 08:46:40;;;;;;;1.23;1.20;;;23.40;75.10;;;;;;4932293;28;20205;-74
2022/07/05 08:49:07;;;;;;;2.65;1.20;;;23.40;75.00;;;;;;4933183;28;20249;-74
2022/07/05 08:51:38;;;;;;;1.65;1.25;;;23.40;74.90;;;;;;4932584;28;20286;-73
2022/07/05 08:54:05;;;;;;;1.65;1.20;;;23.40;75.00;;;;;;4932176;28;20190;-74
2022/07/05 08:56:31;;;;;;;1.40;1.17;;;23.40;74.80;;;;;;4934824;29;20243;-73
2022/07/05 08:58:57;;;;;;;1.10;1.10;;;23.40;74.80;;;;;;4960078;28;20190;-74
2022/07/05 09:01:24;;;;;;;1.00;1.00;;;23.40;74.50;;;;;;4953598;28;20205;-73
2022/07/05 09:03:52;;;;;;;1.40;1.20;;;23.50;74.30;;;;;;4952274;28;20202;-74
2022/07/05 09:06:27;;;;;;;1.17;1.02;;;23.40;74.10;;;;;;4969775;28;20222;-74
2022/07/05 09:08:56;;;;;;;2.08;1.40;;;23.40;74.10;;;;;;4956274;28;20206;-74
2022/07/05 09:11:35;;;;;;;1.23;1.00;;;23.40;74.10;;;;;;4956298;29;20214;-74
2022/07/05 09:14:04;;;;;;;1.23;1.00;;;23.40;73.80;;;;;;4940870;28;20175;-74
2022/07/05 09:16:32;;;;;;;1.27;1.10;;;23.40;73.20;;;;;;4955979;28;20187;-74
2022/07/05 09:19:07;;;;;;;1.10;0.98;;;23.50;73.30;;;;;;4955962;28;20659;-73
2022/07/05 09:21:33;;;;;;;0.90;0.90;;;23.40;73.10;;;;;;4940017;28;20213;-73
2022/07/05 09:24:06;;;;;;;1.67;1.00;;;23.40;72.90;;;;;;4955289;28;20194;-74
2022/07/05 09:26:45;;;;;;;1.10;1.02;;;23.50;72.70;;;;;;4955772;28;20638;-74
2022/07/05 09:29:14;;;;;;;1.20;1.10;;;23.40;72.70;;;;;;4955791;28;20222;-74
2022/07/05 09:31:44;;;;;;;1.40;1.30;;;23.40;72.80;;;;;;4971975;28;20230;-73
2022/07/05 09:34:19;;;;;;;1.25;1.15;;;23.40;73.00;;;;;;4963584;28;20218;-73
2022/07/05 09:36:54;;;;;;;1.75;1.58;;;23.50;73.40;;;;;;4939372;28;20208;-74
2022/07/05 09:39:29;;;;;;;4.03;2.25;;;23.40;72.70;;;;;;4934167;29;20227;-74
2022/07/05 09:42:23;;;;;;;2.30;1.42;;;23.50;73.20;;;;;;4958259;28;20565;-73
2022/07/05 09:44:52;;;;;;;2.38;1.60;;;23.50;73.10;;;;;;4952049;28;20199;-74
2022/07/05 09:47:29;;;;;;;6.88;2.88;;;23.50;72.80;;;;;;4950680;29;20190;-73
2022/07/05 09:50:03;;;;;;;4.15;2.00;;;23.50;72.80;;;;;;4956626;28;20210;-74
2022/07/05 09:52:41;;;;;;;3.90;2.40;;;23.50;72.70;;;;;;4947862;29;20175;-74
2022/07/05 09:55:17;;;;;;;5.57;2.38;;;23.50;72.90;;;;;;4940929;29;20237;-74
2022/07/05 09:57:46;;;;;;;4.10;2.50;;;23.50;73.10;;;;;;4955301;28;20214;-74
2022/07/05 10:00:18;;;;;;;3.20;2.50;;;23.50;73.40;;;;;;4953327;28;20223;-74
2022/07/05 10:02:55;;;;;;;4.32;2.53;;;23.50;73.60;;;;;;4946411;29;20241;-74
2022/07/05 10:05:26;;;;;;;5.03;2.85;;;23.50;74.00;;;;;;4936131;29;20175;-73
2022/07/05 10:08:01;;;;;;;5.78;2.90;;;23.50;73.70;;;;;;4940643;28;20211;-73
2022/07/05 10:10:32;;;;;;;5.35;2.33;;;23.50;73.10;;;;;;4936189;28;20272;-74
2022/07/05 10:13:07;;;;;;;5.10;2.72;;;23.50;73.40;;;;;;4938764;29;20195;-74
2022/07/05 10:15:35;;;;;;;4.80;2.85;;;23.50;73.10;;;;;;4955086;28;20212;-74
2022/07/05 10:18:11;;;;;;;3.90;2.58;;;23.50;73.30;;;;;;4939443;29;20179;-74
2022/07/05 10:20:41;;;;;;;3.88;2.50;;;23.50;72.70;;;;;;4941167;28;20210;-74
2022/07/05 10:23:14;;;;;;;4.63;2.67;;;23.50;72.70;;;;;;4951584;28;20199;-74
2022/07/05 10:25:43;;;;;;;5.20;2.75;;;23.60;73.20;;;;;;4933014;29;20242;-74
2022/07/05 10:28:10;;;;;;;4.45;2.65;;;23.50;72.70;;;;;;4935382;28;20262;-73
2022/07/05 10:30:37;;;;;;;6.18;3.03;;;23.50;72.70;;;;;;4953050;28;20774;-74
2022/07/05 10:33:07;;;;;;;4.13;2.58;;;23.50;73.50;;;;;;4938322;29;20663;-74
2022/07/05 10:35:34;;;;;;;4.38;2.78;;;23.60;73.10;;;;;;4969126;28;20250;-74
2022/07/05 10:38:02;;;;;;;2.80;2.28;;;23.50;72.50;;;;;;4949452;29;20206;-74
2022/07/05 10:40:31;;;;;;;4.60;2.92;;;23.60;72.70;;;;;;4937987;28;20233;-73
2022/07/05 10:43:02;;;;;;;5.90;2.78;;;23.50;72.60;;;;;;4946757;29;20186;-73
2022/07/05 10:45:38;;;;;;;4.88;2.67;;;23.50;72.50;;;;;;4952981;28;20190;-74
2022/07/05 10:48:24;;;;;;;6.15;2.80;;;23.60;72.60;;;;;;4965281;28;20205;-73
2022/07/05 10:51:14;;;;;;;5.97;2.78;;;23.50;72.20;;;;;;4944159;29;20273;-74
2022/07/05 10:53:39;;;;;;;5.07;2.78;;;23.50;72.00;;;;;;4950660;29;20199;-73
2022/07/05 10:56:05;;;;;;;5.05;2.88;;;23.60;72.50;;;;;;4952389;29;20195;-73
2022/07/05 10:58:30;;;;;;;3.67;2.60;;;23.60;72.30;;;;;;4964782;28;20727;-74
2022/07/05 11:01:11;;;;;;;4.55;2.53;;;23.50;72.60;;;;;;4961420;28;20249;-74
2022/07/05 11:04:10;;;;;;;6.47;2.75;;;23.60;72.20;;;;;;4969961;28;20178;-73
2022/07/05 11:06:39;;;;;;;3.00;2.20;;;23.60;72.40;;;;;;4966545;28;20210;-74
2022/07/05 11:09:16;;;;;;;3.83;2.83;;;23.60;72.00;;;;;;4951025;28;20223;-73
2022/07/05 11:12:01;;;;;;;4.10;2.58;;;23.50;72.00;;;;;;4951144;29;20223;-74
2022/07/05 11:14:26;;;;;;;5.80;3.13;;;23.60;71.80;;;;;;4950198;28;20268;-74
2022/07/05 11:17:15;;;;;;;3.85;2.47;;;23.60;71.90;;;;;;4981857;28;20341;-74
2022/07/05 11:20:06;;;;;;;3.78;2.55;;;23.60;71.90;;;;;;4973552;28;20237;-74
2022/07/05 11:22:35;;;;;;;5.85;2.60;;;23.60;72.30;;;;;;4968712;28;20625;-74
2022/07/05 11:25:02;;;;;;;4.30;2.60;;;23.60;72.20;;;;;;4953235;28;20187;-73
2022/07/05 11:27:29;;;;;;;3.50;2.30;;;23.60;71.60;;;;;;4937769;28;20190;-74
2022/07/05 11:29:56;;;;;;;5.10;2.53;;;23.60;71.20;;;;;;4953221;28;20241;-73
2022/07/05 11:32:29;;;;;;;6.78;2.47;;;23.60;71.30;;;;;;4969100;28;20701;-73
2022/07/05 11:35:14;;;;;;;3.30;2.30;;;23.60;71.10;;;;;;4968561;28;20212;-74
2022/07/05 11:38:07;;;;;;;5.40;2.20;;;23.60;71.10;;;;;;4945228;29;20178;-74
2022/07/05 11:40:42;;;;;;;4.20;2.50;;;23.60;71.30;;;;;;4950447;28;20217;-73
2022/07/05 11:43:09;;;;;;;3.70;2.30;;;23.60;71.40;;;;;;4936141;28;20218;-74
2022/07/05 11:45:35;;;;;;;4.50;2.13;;;23.60;70.70;;;;;;4960936;28;20712;-74
2022/07/05 11:48:03;;;;;;;2.63;2.08;;;23.60;71.50;;;;;;4942563;28;20211;-73
2022/07/05 11:50:32;;;;;;;4.03;2.22;;;23.60;71.20;;;;;;4969940;28;20202;-71
2022/07/05 11:53:00;;;;;;;3.50;2.20;;;23.60;70.80;;;;;;4947381;29;20190;-71
2022/07/05 11:55:28;;;;;;;5.25;2.40;;;23.60;71.40;;;;;;4934201;28;20179;-72
2022/07/05 11:57:57;;;;;;;3.08;2.00;;;23.60;71.10;;;;;;4918893;29;20209;-73
2022/07/05 12:00:40;;;;;;;3.53;2.30;;;23.60;71.10;;;;;;4935478;28;20215;-73
2022/07/05 12:03:14;;;;;;;2.92;2.00;;;23.60;70.80;;;;;;4953956;28;20269;-73
2022/07/05 12:05:40;;;;;;;2.60;2.13;;;23.60;70.30;;;;;;4936774;29;20226;-73
2022/07/05 12:08:06;;;;;;;3.63;2.22;;;23.60;70.50;;;;;;4941605;28;20213;-74
2022/07/05 12:13:16;;;;;;;3.67;2.00;;;23.60;70.10;;;;;;4949661;28;20193;-73
2022/07/05 12:15:42;;;;;;;2.60;1.80;;;23.70;70.40;;;;;;4960958;28;20190;-74
2022/07/05 12:18:09;;;;;;;4.13;2.20;;;23.60;70.30;;;;;;4952674;28;20192;-73
2022/07/05 12:20:39;;;;;;;3.60;2.20;;;23.70;70.70;;;;;;4965083;28;20300;-73
2022/07/05 12:23:07;;;;;;;2.13;1.85;;;23.60;70.50;;;;;;4970471;28;20197;-74
2022/07/05 12:25:34;;;;;;;4.25;1.95;;;23.60;70.00;;;;;;4933317;29;20195;-74
2022/07/05 12:28:05;;;;;;;2.08;1.83;;;23.60;70.50;;;;;;4942504;28;20214;-74
2022/07/05 12:30:32;;;;;;;2.20;1.80;;;23.60;70.10;;;;;;4969411;28;20206;-74
2022/07/05 12:33:07;;;;;;;5.45;2.28;;;23.70;70.00;;;;;;4953004;28;20219;-74
2022/07/05 12:35:38;;;;;;;3.63;2.10;;;23.60;69.60;;;;;;4948911;29;20281;-74
2022/07/05 12:38:08;;;;;;;3.08;1.98;;;23.60;70.10;;;;;;4950083;29;20176;-73
2022/07/05 12:40:38;;;;;;;3.42;1.92;;;23.70;69.90;;;;;;4962844;28;20221;-74
2022/07/05 12:43:12;;;;;;;2.83;2.00;;;23.60;69.80;;;;;;4956834;28;20189;-73
2022/07/05 12:45:41;;;;;;;3.38;2.10;;;23.60;69.90;;;;;;4967862;28;20233;-73
2022/07/05 12:48:09;;;;;;;2.20;1.88;;;23.70;70.10;;;;;;4970826;28;20206;-73
2022/07/05 12:50:54;;;;;;;2.72;2.13;;;23.60;70.00;;;;;;4964721;28;20210;-73
2022/07/05 12:58:57;;;;;;;3.03;1.80;;;23.70;70.30;;;;;;4953552;28;20217;-73
2022/07/05 13:01:39;;;;;;;2.38;1.77;;;23.70;69.70;;;;;;4938045;29;20283;-74
2022/07/05 13:04:12;;;;;;;3.75;2.15;;;23.70;69.70;;;;;;4929232;28;20204;-74
2022/07/05 13:06:41;;;;;;;2.10;1.73;;;23.60;69.60;;;;;;4967892;28;20236;-74
2022/07/05 13:09:08;;;;;;;2.50;1.63;;;23.70;69.90;;;;;;4976688;28;20220;-74